sensor_id;sensor_type;location;lat;lon;timestamp;pressure;altitude;pressure_sealevel;temperature;humidity
804;BME280;25687;49.976;8.240;2023-03-26T00:01:07;99467.28;;;6.82;100.00
804;BME280;25687;49.976;8.240;2023-03-26T00:03:34;99467.75;;;6.73;100.00
804;BME280;25687;49.976;8.240;2023-03-26T00:06:11;99470.38;;;6.71;100.00
804;BME280;25687;49.976;8.240;2023-03-26T00:08:38;99476.00;;;6.60;100.00
804;BME280;25687;49.976;8.240;2023-03-26T00:11:06;99473.34;;;6.62;100.00
804;BME280;25687;49.976;8.240;2023-03-26T00:13:32;99471.56;;;6.64;100.00
804;BME280;25687;49.976;8.240;2023-03-26T00:15:59;99465.25;;;6.54;100.00
804;BME280;25687;49.976;8.240;2023-03-26T00:18:25;99472.84;;;6.55;100.00
804;BME280;25687;49.976;8.240;2023-03-26T00:21:01;99466.44;;;6.46;100.00
804;BME280;25687;49.976;8.240;2023-03-26T00:23:28;99478.13;;;6.33;100.00
804;BME280;25687;49.976;8.240;2023-03-26T00:25:54;99476.34;;;6.35;100.00
804;BME280;25687;49.976;8.240;2023-03-26T00:28:20;99468.16;;;6.46;100.00
804;BME280;25687;49.976;8.240;2023-03-26T00:30:55;99466.56;;;6.43;100.00
804;BME280;25687;49.976;8.240;2023-03-26T00:33:21;99470.19;;;6.39;100.00
804;BME280;25687;49.976;8.240;2023-03-26T00:35:50;99472.94;;;6.35;100.00
804;BME280;25687;49.976;8.240;2023-03-26T00:38:16;99466.81;;;6.39;100.00
804;BME280;25687;49.976;8.240;2023-03-26T00:40:41;99468.53;;;6.38;100.00
804;BME280;25687;49.976;8.240;2023-03-26T00:43:09;99474.69;;;6.34;100.00
804;BME280;25687;49.976;8.240;2023-03-26T00:45:42;99467.72;;;6.38;100.00
804;BME280;25687;49.976;8.240;2023-03-26T00:48:08;99469.28;;;6.40;100.00
804;BME280;25687;49.976;8.240;2023-03-26T00:50:33;99467.31;;;6.28;100.00
804;BME280;25687;49.976;8.240;2023-03-26T00:52:58;99462.00;;;6.33;100.00
804;BME280;25687;49.976;8.240;2023-03-26T00:55:23;99463.91;;;6.27;100.00
804;BME280;25687;49.976;8.240;2023-03-26T00:57:49;99456.19;;;6.29;100.00
804;BME280;25687;49.976;8.240;2023-03-26T01:00:17;99456.13;;;6.30;100.00
804;BME280;25687;49.976;8.240;2023-03-26T01:02:43;99453.66;;;6.29;100.00
804;BME280;25687;49.976;8.240;2023-03-26T01:10:45;99452.13;;;6.25;100.00
804;BME280;25687;49.976;8.240;2023-03-26T01:13:24;99440.59;;;6.16;100.00
804;BME280;25687;49.976;8.240;2023-03-26T01:15:49;99443.31;;;6.13;100.00
804;BME280;25687;49.976;8.240;2023-03-26T01:18:22;99437.44;;;6.11;100.00
804;BME280;25687;49.976;8.240;2023-03-26T01:20:53;99432.22;;;6.14;100.00
804;BME280;25687;49.976;8.240;2023-03-26T01:23:38;99426.41;;;6.10;100.00
804;BME280;25687;49.976;8.240;2023-03-26T01:26:11;99419.28;;;6.17;100.00
804;BME280;25687;49.976;8.240;2023-03-26T01:28:41;99418.47;;;6.17;100.00
804;BME280;25687;49.976;8.240;2023-03-26T01:31:29;99417.78;;;6.13;100.00
804;BME280;25687;49.976;8.240;2023-03-26T01:34:22;99412.31;;;6.21;100.00
804;BME280;25687;49.976;8.240;2023-03-26T01:37:11;99407.28;;;6.19;100.00
804;BME280;25687;49.976;8.240;2023-03-26T01:39:49;99398.34;;;6.28;100.00
804;BME280;25687;49.976;8.240;2023-03-26T01:45:14;99406.50;;;6.17;100.00
804;BME280;25687;49.976;8.240;2023-03-26T01:47:41;99395.41;;;6.36;100.00
804;BME280;25687;49.976;8.240;2023-03-26T01:50:08;99396.88;;;6.41;100.00
804;BME280;25687;49.976;8.240;2023-03-26T01:52:33;99393.38;;;6.42;100.00
804;BME280;25687;49.976;8.240;2023-03-26T01:54:59;99384.91;;;6.42;100.00
804;BME280;25687;49.976;8.240;2023-03-26T02:00:31;99373.47;;;6.67;100.00
804;BME280;25687;49.976;8.240;2023-03-26T02:10:55;99368.94;;;6.72;100.00
804;BME280;25687;49.976;8.240;2023-03-26T02:13:22;99358.94;;;6.85;100.00
804;BME280;25687;49.976;8.240;2023-03-26T02:15:59;99356.31;;;6.86;100.00
804;BME280;25687;49.976;8.240;2023-03-26T02:18:25;99343.22;;;6.92;100.00
804;BME280;25687;49.976;8.240;2023-03-26T02:21:00;99346.47;;;6.78;100.00
804;BME280;25687;49.976;8.240;2023-03-26T02:23:25;99344.81;;;6.77;100.00
804;BME280;25687;49.976;8.240;2023-03-26T02:25:53;99347.06;;;6.84;100.00
804;BME280;25687;49.976;8.240;2023-03-26T02:28:19;99344.88;;;6.76;100.00
804;BME280;25687;49.976;8.240;2023-03-26T02:30:44;99345.53;;;6.97;100.00
804;BME280;25687;49.976;8.240;2023-03-26T02:33:11;99345.00;;;6.90;100.00
804;BME280;25687;49.976;8.240;2023-03-26T02:35:40;99339.59;;;6.97;100.00
804;BME280;25687;49.976;8.240;2023-03-26T02:38:09;99334.91;;;7.05;100.00
804;BME280;25687;49.976;8.240;2023-03-26T02:40:38;99336.47;;;7.07;100.00
804;BME280;25687;49.976;8.240;2023-03-26T02:43:03;99331.13;;;7.12;100.00
804;BME280;25687;49.976;8.240;2023-03-26T02:45:28;99335.16;;;7.16;100.00
804;BME280;25687;49.976;8.240;2023-03-26T02:47:54;99328.72;;;7.09;100.00
804;BME280;25687;49.976;8.240;2023-03-26T02:50:19;99328.72;;;7.09;100.00
804;BME280;25687;49.976;8.240;2023-03-26T02:52:44;99321.78;;;7.11;100.00
804;BME280;25687;49.976;8.240;2023-03-26T02:55:13;99322.88;;;7.23;100.00
804;BME280;25687;49.976;8.240;2023-03-26T02:57:38;99319.50;;;7.22;100.00
804;BME280;25687;49.976;8.240;2023-03-26T03:00:04;99308.19;;;7.26;100.00
804;BME280;25687;49.976;8.240;2023-03-26T03:02:38;99297.03;;;7.27;100.00
804;BME280;25687;49.976;8.240;2023-03-26T03:05:04;99296.56;;;7.37;100.00
804;BME280;25687;49.976;8.240;2023-03-26T03:07:30;99284.72;;;7.34;100.00
804;BME280;25687;49.976;8.240;2023-03-26T03:09:55;99284.41;;;7.40;100.00
804;BME280;25687;49.976;8.240;2023-03-26T03:12:26;99298.13;;;7.39;100.00
804;BME280;25687;49.976;8.240;2023-03-26T03:14:51;99281.84;;;7.40;100.00
804;BME280;25687;49.976;8.240;2023-03-26T03:17:17;99275.75;;;7.43;100.00
804;BME280;25687;49.976;8.240;2023-03-26T03:19:44;99271.47;;;7.43;100.00
804;BME280;25687;49.976;8.240;2023-03-26T03:22:10;99274.91;;;7.42;100.00
804;BME280;25687;49.976;8.240;2023-03-26T03:24:35;99271.59;;;7.40;100.00
804;BME280;25687;49.976;8.240;2023-03-26T03:27:00;99264.78;;;7.41;100.00
804;BME280;25687;49.976;8.240;2023-03-26T03:29:26;99260.47;;;7.41;100.00
804;BME280;25687;49.976;8.240;2023-03-26T03:31:52;99257.84;;;7.43;100.00
804;BME280;25687;49.976;8.240;2023-03-26T03:34:17;99262.78;;;7.46;100.00
804;BME280;25687;49.976;8.240;2023-03-26T03:36:42;99260.97;;;7.32;100.00
804;BME280;25687;49.976;8.240;2023-03-26T03:39:12;99257.75;;;7.45;100.00
804;BME280;25687;49.976;8.240;2023-03-26T03:41:37;99250.50;;;7.37;100.00
804;BME280;25687;49.976;8.240;2023-03-26T03:44:02;99248.25;;;7.47;100.00
804;BME280;25687;49.976;8.240;2023-03-26T03:46:28;99250.88;;;7.45;100.00
804;BME280;25687;49.976;8.240;2023-03-26T03:48:53;99250.00;;;7.46;100.00
804;BME280;25687;49.976;8.240;2023-03-26T03:51:18;99250.16;;;7.43;100.00
804;BME280;25687;49.976;8.240;2023-03-26T03:53:44;99240.75;;;7.43;100.00
804;BME280;25687;49.976;8.240;2023-03-26T03:56:10;99238.00;;;7.47;100.00
804;BME280;25687;49.976;8.240;2023-03-26T03:58:38;99242.88;;;7.51;100.00
804;BME280;25687;49.976;8.240;2023-03-26T04:01:05;99232.16;;;7.45;100.00
804;BME280;25687;49.976;8.240;2023-03-26T04:03:31;99223.31;;;7.50;100.00
804;BME280;25687;49.976;8.240;2023-03-26T04:06:02;99221.03;;;7.46;100.00
804;BME280;25687;49.976;8.240;2023-03-26T04:08:31;99214.72;;;7.51;100.00
804;BME280;25687;49.976;8.240;2023-03-26T04:10:56;99208.88;;;7.49;100.00
804;BME280;25687;49.976;8.240;2023-03-26T04:13:22;99205.81;;;7.42;100.00
804;BME280;25687;49.976;8.240;2023-03-26T04:15:47;99196.44;;;7.43;100.00
804;BME280;25687;49.976;8.240;2023-03-26T04:18:12;99199.50;;;7.18;100.00
804;BME280;25687;49.976;8.240;2023-03-26T04:20:43;99200.50;;;7.15;100.00
804;BME280;25687;49.976;8.240;2023-03-26T04:23:12;99188.97;;;7.08;100.00
804;BME280;25687;49.976;8.240;2023-03-26T04:25:40;99191.34;;;7.27;100.00
804;BME280;25687;49.976;8.240;2023-03-26T04:28:07;99173.09;;;7.33;100.00
804;BME280;25687;49.976;8.240;2023-03-26T04:30:33;99167.47;;;7.26;100.00
804;BME280;25687;49.976;8.240;2023-03-26T04:33:03;99167.50;;;6.94;100.00
804;BME280;25687;49.976;8.240;2023-03-26T04:35:33;99159.88;;;6.78;100.00
804;BME280;25687;49.976;8.240;2023-03-26T04:38:00;99160.22;;;6.72;100.00
804;BME280;25687;49.976;8.240;2023-03-26T04:40:26;99173.78;;;6.57;100.00
804;BME280;25687;49.976;8.240;2023-03-26T04:42:54;99176.00;;;6.47;100.00
804;BME280;25687;49.976;8.240;2023-03-26T04:45:22;99161.00;;;6.57;100.00
804;BME280;25687;49.976;8.240;2023-03-26T04:47:48;99153.44;;;6.55;100.00
804;BME280;25687;49.976;8.240;2023-03-26T04:50:14;99149.56;;;6.64;100.00
804;BME280;25687;49.976;8.240;2023-03-26T04:52:39;99143.56;;;6.65;100.00
804;BME280;25687;49.976;8.240;2023-03-26T04:55:37;99143.09;;;6.41;100.00
804;BME280;25687;49.976;8.240;2023-03-26T04:58:05;99143.44;;;6.35;100.00
804;BME280;25687;49.976;8.240;2023-03-26T05:00:31;99128.03;;;6.52;100.00
804;BME280;25687;49.976;8.240;2023-03-26T05:02:56;99127.88;;;6.55;100.00
804;BME280;25687;49.976;8.240;2023-03-26T05:05:26;99122.25;;;6.49;100.00
804;BME280;25687;49.976;8.240;2023-03-26T05:07:53;99105.47;;;6.44;100.00
804;BME280;25687;49.976;8.240;2023-03-26T05:10:19;99106.34;;;6.43;100.00
804;BME280;25687;49.976;8.240;2023-03-26T05:12:45;99094.09;;;6.50;100.00
804;BME280;25687;49.976;8.240;2023-03-26T05:15:12;99091.78;;;6.45;100.00
804;BME280;25687;49.976;8.240;2023-03-26T05:17:38;99085.88;;;6.45;100.00
804;BME280;25687;49.976;8.240;2023-03-26T05:20:13;99075.38;;;6.34;100.00
804;BME280;25687;49.976;8.240;2023-03-26T05:22:41;99078.19;;;6.29;100.00
804;BME280;25687;49.976;8.240;2023-03-26T05:25:07;99066.47;;;6.25;100.00
804;BME280;25687;49.976;8.240;2023-03-26T05:27:32;99078.75;;;6.34;100.00
804;BME280;25687;49.976;8.240;2023-03-26T05:30:01;99085.44;;;6.37;100.00
804;BME280;25687;49.976;8.240;2023-03-26T05:32:26;99084.44;;;6.39;100.00
804;BME280;25687;49.976;8.240;2023-03-26T05:34:51;99091.84;;;6.28;100.00
804;BME280;25687;49.976;8.240;2023-03-26T05:37:16;99090.22;;;6.43;100.00
804;BME280;25687;49.976;8.240;2023-03-26T05:39:44;99085.53;;;6.51;100.00
804;BME280;25687;49.976;8.240;2023-03-26T05:42:10;99080.91;;;6.58;100.00
804;BME280;25687;49.976;8.240;2023-03-26T05:44:35;99076.59;;;6.58;100.00
804;BME280;25687;49.976;8.240;2023-03-26T05:47:01;99060.47;;;6.58;100.00
804;BME280;25687;49.976;8.240;2023-03-26T05:49:26;99058.91;;;6.55;100.00
804;BME280;25687;49.976;8.240;2023-03-26T05:51:51;99064.09;;;6.54;100.00
804;BME280;25687;49.976;8.240;2023-03-26T05:54:16;99051.38;;;6.36;100.00
804;BME280;25687;49.976;8.240;2023-03-26T05:56:42;99043.25;;;6.29;100.00
804;BME280;25687;49.976;8.240;2023-03-26T05:59:07;99041.03;;;6.39;100.00
804;BME280;25687;49.976;8.240;2023-03-26T06:01:32;99030.00;;;6.39;100.00
804;BME280;25687;49.976;8.240;2023-03-26T06:03:58;99029.16;;;6.38;100.00
804;BME280;25687;49.976;8.240;2023-03-26T06:06:23;99028.72;;;6.46;100.00
804;BME280;25687;49.976;8.240;2023-03-26T06:08:50;99023.28;;;6.52;100.00
804;BME280;25687;49.976;8.240;2023-03-26T06:11:17;99022.56;;;6.50;100.00
804;BME280;25687;49.976;8.240;2023-03-26T06:13:43;99023.94;;;6.40;100.00
804;BME280;25687;49.976;8.240;2023-03-26T06:16:09;99009.63;;;6.37;100.00
804;BME280;25687;49.976;8.240;2023-03-26T06:18:35;99002.47;;;6.44;100.00
804;BME280;25687;49.976;8.240;2023-03-26T06:21:02;99007.47;;;6.45;100.00
804;BME280;25687;49.976;8.240;2023-03-26T06:23:28;99001.84;;;6.55;100.00
804;BME280;25687;49.976;8.240;2023-03-26T06:25:54;98995.78;;;6.41;100.00
804;BME280;25687;49.976;8.240;2023-03-26T06:28:19;98997.94;;;6.33;100.00
804;BME280;25687;49.976;8.240;2023-03-26T06:30:44;99002.78;;;6.54;100.00
804;BME280;25687;49.976;8.240;2023-03-26T06:33:09;98999.88;;;6.60;100.00
804;BME280;25687;49.976;8.240;2023-03-26T06:35:35;98997.94;;;6.63;100.00
804;BME280;25687;49.976;8.240;2023-03-26T06:38:01;98997.53;;;6.71;100.00
804;BME280;25687;49.976;8.240;2023-03-26T06:40:26;98994.69;;;6.61;100.00
804;BME280;25687;49.976;8.240;2023-03-26T06:42:52;98994.44;;;6.66;100.00
804;BME280;25687;49.976;8.240;2023-03-26T06:45:17;98994.13;;;6.56;100.00
804;BME280;25687;49.976;8.240;2023-03-26T06:47:42;98983.81;;;6.58;100.00
804;BME280;25687;49.976;8.240;2023-03-26T06:50:08;98986.69;;;6.52;100.00
804;BME280;25687;49.976;8.240;2023-03-26T06:52:36;98984.56;;;6.60;100.00
804;BME280;25687;49.976;8.240;2023-03-26T06:55:01;98973.19;;;6.50;100.00
804;BME280;25687;49.976;8.240;2023-03-26T06:57:26;98973.03;;;6.53;100.00
804;BME280;25687;49.976;8.240;2023-03-26T06:59:51;98967.22;;;6.65;100.00
804;BME280;25687;49.976;8.240;2023-03-26T07:02:17;98959.47;;;6.67;100.00
804;BME280;25687;49.976;8.240;2023-03-26T07:04:42;98964.22;;;6.73;100.00
804;BME280;25687;49.976;8.240;2023-03-26T07:07:07;98961.13;;;6.82;100.00
804;BME280;25687;49.976;8.240;2023-03-26T07:09:33;98957.38;;;6.73;100.00
804;BME280;25687;49.976;8.240;2023-03-26T07:11:58;98949.34;;;6.65;100.00
804;BME280;25687;49.976;8.240;2023-03-26T07:14:24;98943.31;;;6.66;100.00
804;BME280;25687;49.976;8.240;2023-03-26T07:16:51;98938.94;;;6.68;100.00
804;BME280;25687;49.976;8.240;2023-03-26T07:19:17;98935.66;;;6.81;100.00
804;BME280;25687;49.976;8.240;2023-03-26T07:21:42;98934.00;;;6.79;100.00
804;BME280;25687;49.976;8.240;2023-03-26T07:24:11;98925.94;;;6.87;100.00
804;BME280;25687;49.976;8.240;2023-03-26T07:29:17;98918.13;;;6.74;100.00
804;BME280;25687;49.976;8.240;2023-03-26T07:32:24;98912.31;;;6.72;100.00
804;BME280;25687;49.976;8.240;2023-03-26T07:34:54;98906.53;;;6.69;100.00
804;BME280;25687;49.976;8.240;2023-03-26T07:38:08;98898.03;;;6.68;100.00
804;BME280;25687;49.976;8.240;2023-03-26T07:43:27;98889.66;;;6.81;100.00
804;BME280;25687;49.976;8.240;2023-03-26T07:45:57;98889.47;;;6.69;100.00
804;BME280;25687;49.976;8.240;2023-03-26T07:48:33;98888.81;;;6.66;100.00
804;BME280;25687;49.976;8.240;2023-03-26T07:51:05;98884.81;;;6.76;100.00
804;BME280;25687;49.976;8.240;2023-03-26T07:53:31;98884.00;;;6.75;100.00
804;BME280;25687;49.976;8.240;2023-03-26T07:56:13;98886.53;;;6.61;100.00
804;BME280;25687;49.976;8.240;2023-03-26T08:09:38;98887.00;;;6.68;100.00
804;BME280;25687;49.976;8.240;2023-03-26T08:17:28;98879.72;;;6.90;100.00
804;BME280;25687;49.976;8.240;2023-03-26T08:20:02;98878.81;;;6.91;100.00
804;BME280;25687;49.976;8.240;2023-03-26T08:22:36;98888.69;;;6.98;100.00
804;BME280;25687;49.976;8.240;2023-03-26T08:28:03;98881.91;;;6.97;100.00
804;BME280;25687;49.976;8.240;2023-03-26T08:30:33;98881.09;;;6.96;100.00
804;BME280;25687;49.976;8.240;2023-03-26T08:33:10;98880.44;;;6.78;100.00
804;BME280;25687;49.976;8.240;2023-03-26T08:35:36;98875.59;;;6.59;100.00
804;BME280;25687;49.976;8.240;2023-03-26T08:38:13;98868.47;;;6.64;100.00
804;BME280;25687;49.976;8.240;2023-03-26T08:46:26;98854.50;;;6.70;100.00
804;BME280;25687;49.976;8.240;2023-03-26T09:00:34;98836.97;;;7.21;100.00
804;BME280;25687;49.976;8.240;2023-03-26T09:15:02;98821.78;;;7.33;100.00
804;BME280;25687;49.976;8.240;2023-03-26T09:18:02;98806.41;;;7.74;100.00
804;BME280;25687;49.976;8.240;2023-03-26T09:23:43;98801.34;;;7.60;100.00
804;BME280;25687;49.976;8.240;2023-03-26T09:29:01;98785.13;;;7.74;100.00
804;BME280;25687;49.976;8.240;2023-03-26T09:34:31;98786.00;;;8.13;100.00
804;BME280;25687;49.976;8.240;2023-03-26T09:37:58;98793.75;;;7.86;100.00
804;BME280;25687;49.976;8.240;2023-03-26T09:40:18;98790.72;;;7.66;100.00
804;BME280;25687;49.976;8.240;2023-03-26T09:42:48;98792.72;;;7.88;100.00
804;BME280;25687;49.976;8.240;2023-03-26T09:45:40;98784.22;;;7.88;100.00
804;BME280;25687;49.976;8.240;2023-03-26T09:51:19;98781.66;;;7.88;100.00
804;BME280;25687;49.976;8.240;2023-03-26T09:54:18;98785.19;;;8.26;100.00
804;BME280;25687;49.976;8.240;2023-03-26T09:56:56;98771.38;;;8.41;100.00
804;BME280;25687;49.976;8.240;2023-03-26T10:05:01;98738.63;;;11.07;100.00
804;BME280;25687;49.976;8.240;2023-03-26T10:12:49;98721.78;;;13.22;100.00
804;BME280;25687;49.976;8.240;2023-03-26T10:21:20;98706.09;;;12.34;100.00
804;BME280;25687;49.976;8.240;2023-03-26T10:26:43;98696.75;;;12.84;100.00
804;BME280;25687;49.976;8.240;2023-03-26T10:40:47;98685.47;;;10.28;100.00
804;BME280;25687;49.976;8.240;2023-03-26T10:49:00;98688.44;;;10.46;100.00
804;BME280;25687;49.976;8.240;2023-03-26T10:51:48;98707.72;;;10.40;100.00
804;BME280;25687;49.976;8.240;2023-03-26T11:00:11;98684.03;;;11.57;100.00
804;BME280;25687;49.976;8.240;2023-03-26T11:08:49;98660.81;;;12.20;100.00
804;BME280;25687;49.976;8.240;2023-03-26T11:11:43;98650.75;;;12.48;100.00
804;BME280;25687;49.976;8.240;2023-03-26T11:14:25;98659.56;;;12.46;100.00
804;BME280;25687;49.976;8.240;2023-03-26T11:19:49;98662.22;;;12.65;100.00
804;BME280;25687;49.976;8.240;2023-03-26T11:22:46;98672.84;;;12.91;100.00
804;BME280;25687;49.976;8.240;2023-03-26T11:28:01;98665.28;;;13.39;100.00
804;BME280;25687;49.976;8.240;2023-03-26T11:30:47;98651.41;;;14.35;100.00
804;BME280;25687;49.976;8.240;2023-03-26T11:33:22;98641.88;;;14.63;100.00
804;BME280;25687;49.976;8.240;2023-03-26T11:35:50;98644.44;;;14.73;100.00
804;BME280;25687;49.976;8.240;2023-03-26T11:38:38;98628.38;;;15.06;100.00
804;BME280;25687;49.976;8.240;2023-03-26T11:41:15;98636.03;;;14.71;100.00
804;BME280;25687;49.976;8.240;2023-03-26T11:43:44;98648.78;;;13.79;100.00
804;BME280;25687;49.976;8.240;2023-03-26T11:46:17;98671.25;;;13.30;100.00
804;BME280;25687;49.976;8.240;2023-03-26T11:48:47;98662.69;;;11.87;100.00
804;BME280;25687;49.976;8.240;2023-03-26T11:51:24;98652.56;;;11.32;100.00
804;BME280;25687;49.976;8.240;2023-03-26T11:53:51;98650.00;;;11.53;100.00
804;BME280;25687;49.976;8.240;2023-03-26T11:56:56;98640.69;;;11.83;100.00
804;BME280;25687;49.976;8.240;2023-03-26T11:59:27;98646.06;;;12.22;100.00
804;BME280;25687;49.976;8.240;2023-03-26T12:01:56;98644.97;;;12.25;100.00
804;BME280;25687;49.976;8.240;2023-03-26T12:04:27;98638.56;;;12.50;100.00
804;BME280;25687;49.976;8.240;2023-03-26T12:07:17;98643.63;;;12.91;100.00
804;BME280;25687;49.976;8.240;2023-03-26T12:10:00;98634.41;;;13.28;100.00
804;BME280;25687;49.976;8.240;2023-03-26T12:12:38;98623.63;;;13.71;100.00
804;BME280;25687;49.976;8.240;2023-03-26T12:15:15;98631.16;;;13.93;100.00
804;BME280;25687;49.976;8.240;2023-03-26T12:17:42;98632.72;;;13.85;100.00
804;BME280;25687;49.976;8.240;2023-03-26T12:20:32;98636.97;;;13.67;100.00
804;BME280;25687;49.976;8.240;2023-03-26T12:23:02;98636.50;;;13.91;100.00
804;BME280;25687;49.976;8.240;2023-03-26T12:25:36;98630.03;;;14.05;100.00
804;BME280;25687;49.976;8.240;2023-03-26T12:30:39;98613.91;;;14.77;100.00
804;BME280;25687;49.976;8.240;2023-03-26T12:33:15;98600.50;;;14.35;100.00
804;BME280;25687;49.976;8.240;2023-03-26T12:35:42;98610.44;;;14.58;100.00
804;BME280;25687;49.976;8.240;2023-03-26T12:41:07;98594.84;;;14.22;100.00
804;BME280;25687;49.976;8.240;2023-03-26T12:43:40;98596.88;;;14.28;100.00
804;BME280;25687;49.976;8.240;2023-03-26T12:46:27;98600.19;;;14.20;100.00
804;BME280;25687;49.976;8.240;2023-03-26T12:49:08;98589.25;;;14.27;100.00
804;BME280;25687;49.976;8.240;2023-03-26T12:51:50;98590.16;;;14.35;100.00
804;BME280;25687;49.976;8.240;2023-03-26T12:54:36;98605.31;;;14.48;100.00
804;BME280;25687;49.976;8.240;2023-03-26T12:57:23;98588.75;;;14.41;97.59
804;BME280;25687;49.976;8.240;2023-03-26T13:17:03;98597.81;;;14.27;98.96
804;BME280;25687;49.976;8.240;2023-03-26T13:23:08;98605.81;;;13.78;97.77
804;BME280;25687;49.976;8.240;2023-03-26T13:25:47;98614.59;;;12.99;100.00
804;BME280;25687;49.976;8.240;2023-03-26T13:31:18;98605.94;;;12.39;100.00
804;BME280;25687;49.976;8.240;2023-03-26T13:36:45;98609.50;;;12.48;100.00
804;BME280;25687;49.976;8.240;2023-03-26T13:47:54;98599.31;;;12.56;100.00
804;BME280;25687;49.976;8.240;2023-03-26T13:50:25;98596.63;;;12.87;100.00
804;BME280;25687;49.976;8.240;2023-03-26T13:52:57;98593.94;;;12.99;100.00
804;BME280;25687;49.976;8.240;2023-03-26T13:55:28;98600.44;;;13.22;100.00
804;BME280;25687;49.976;8.240;2023-03-26T14:00:51;98594.44;;;13.51;100.00
804;BME280;25687;49.976;8.240;2023-03-26T14:03:35;98580.84;;;13.49;98.53
804;BME280;25687;49.976;8.240;2023-03-26T14:06:09;98577.56;;;13.57;100.00
804;BME280;25687;49.976;8.240;2023-03-26T14:08:40;98575.00;;;13.47;99.41
804;BME280;25687;49.976;8.240;2023-03-26T14:11:10;98577.84;;;13.24;96.32
804;BME280;25687;49.976;8.240;2023-03-26T14:13:45;98589.31;;;13.02;98.54
804;BME280;25687;49.976;8.240;2023-03-26T14:16:35;98584.94;;;12.83;97.42
804;BME280;25687;49.976;8.240;2023-03-26T14:22:15;98573.00;;;13.02;100.00
804;BME280;25687;49.976;8.240;2023-03-26T14:27:37;98567.41;;;13.36;98.99
804;BME280;25687;49.976;8.240;2023-03-26T14:35:34;98559.66;;;14.11;99.36
804;BME280;25687;49.976;8.240;2023-03-26T14:41:43;98563.56;;;13.60;96.81
804;BME280;25687;49.976;8.240;2023-03-26T14:49:42;98543.91;;;13.19;97.71
804;BME280;25687;49.976;8.240;2023-03-26T14:52:53;98550.16;;;13.17;97.14
804;BME280;25687;49.976;8.240;2023-03-26T14:55:48;98550.31;;;13.15;99.28
804;BME280;25687;49.976;8.240;2023-03-26T15:01:10;98557.75;;;13.18;96.95
804;BME280;25687;49.976;8.240;2023-03-26T15:10:20;98566.91;;;12.93;94.54
804;BME280;25687;49.976;8.240;2023-03-26T15:12:59;98568.91;;;12.70;97.97
804;BME280;25687;49.976;8.240;2023-03-26T15:35:35;98679.56;;;10.39;100.00
804;BME280;25687;49.976;8.240;2023-03-26T15:38:26;98683.47;;;9.39;100.00
804;BME280;25687;49.976;8.240;2023-03-26T15:41:09;98681.84;;;8.77;100.00
804;BME280;25687;49.976;8.240;2023-03-26T15:49:23;98668.81;;;8.04;100.00
804;BME280;25687;49.976;8.240;2023-03-26T15:52:14;98663.28;;;7.84;100.00
804;BME280;25687;49.976;8.240;2023-03-26T15:57:33;98675.13;;;7.72;100.00
804;BME280;25687;49.976;8.240;2023-03-26T16:00:23;98665.63;;;7.74;100.00
804;BME280;25687;49.976;8.240;2023-03-26T16:05:55;98683.66;;;7.99;100.00
804;BME280;25687;49.976;8.240;2023-03-26T16:08:46;98675.06;;;8.00;100.00
804;BME280;25687;49.976;8.240;2023-03-26T16:16:52;98686.41;;;8.60;100.00
804;BME280;25687;49.976;8.240;2023-03-26T16:24:28;98682.06;;;8.74;100.00
804;BME280;25687;49.976;8.240;2023-03-26T16:27:25;98680.66;;;8.94;100.00
804;BME280;25687;49.976;8.240;2023-03-26T16:30:12;98679.19;;;9.02;100.00
804;BME280;25687;49.976;8.240;2023-03-26T16:32:44;98682.75;;;9.13;100.00
804;BME280;25687;49.976;8.240;2023-03-26T16:37:41;98679.72;;;9.19;100.00
804;BME280;25687;49.976;8.240;2023-03-26T16:45:27;98673.78;;;8.94;100.00
804;BME280;25687;49.976;8.240;2023-03-26T16:59:00;98682.19;;;8.59;100.00
804;BME280;25687;49.976;8.240;2023-03-26T17:01:45;98695.00;;;8.59;100.00
804;BME280;25687;49.976;8.240;2023-03-26T17:04:16;98688.31;;;8.69;100.00
804;BME280;25687;49.976;8.240;2023-03-26T17:06:55;98689.28;;;8.68;100.00
804;BME280;25687;49.976;8.240;2023-03-26T17:12:28;98676.97;;;8.61;100.00
804;BME280;25687;49.976;8.240;2023-03-26T17:26:32;98698.94;;;8.26;100.00
804;BME280;25687;49.976;8.240;2023-03-26T17:29:09;98698.53;;;8.32;100.00
804;BME280;25687;49.976;8.240;2023-03-26T17:32:03;98701.16;;;8.31;100.00
804;BME280;25687;49.976;8.240;2023-03-26T17:42:24;98702.50;;;8.36;100.00
804;BME280;25687;49.976;8.240;2023-03-26T17:47:52;98711.13;;;8.48;100.00
804;BME280;25687;49.976;8.240;2023-03-26T17:50:23;98705.59;;;8.29;100.00
804;BME280;25687;49.976;8.240;2023-03-26T17:53:03;98712.56;;;8.27;100.00
804;BME280;25687;49.976;8.240;2023-03-26T17:55:31;98713.25;;;8.42;100.00
804;BME280;25687;49.976;8.240;2023-03-26T17:58:00;98714.47;;;8.36;100.00
804;BME280;25687;49.976;8.240;2023-03-26T18:00:48;98723.13;;;8.35;100.00
804;BME280;25687;49.976;8.240;2023-03-26T18:03:22;98729.84;;;8.36;100.00
804;BME280;25687;49.976;8.240;2023-03-26T18:06:05;98729.84;;;8.36;100.00
804;BME280;25687;49.976;8.240;2023-03-26T18:08:42;98738.06;;;8.28;100.00
804;BME280;25687;49.976;8.240;2023-03-26T18:16:59;98742.34;;;8.15;100.00
804;BME280;25687;49.976;8.240;2023-03-26T18:19:26;98744.13;;;8.14;100.00
804;BME280;25687;49.976;8.240;2023-03-26T18:21:55;98740.94;;;8.11;100.00
804;BME280;25687;49.976;8.240;2023-03-26T18:24:23;98751.56;;;8.04;100.00
804;BME280;25687;49.976;8.240;2023-03-26T18:26:58;98753.56;;;8.14;100.00
804;BME280;25687;49.976;8.240;2023-03-26T18:34:45;98764.09;;;8.09;100.00
804;BME280;25687;49.976;8.240;2023-03-26T18:37:20;98766.66;;;8.09;100.00
804;BME280;25687;49.976;8.240;2023-03-26T18:40:00;98761.31;;;8.12;100.00
804;BME280;25687;49.976;8.240;2023-03-26T18:42:28;98767.97;;;8.02;100.00
804;BME280;25687;49.976;8.240;2023-03-26T18:44:56;98769.63;;;8.03;100.00
804;BME280;25687;49.976;8.240;2023-03-26T18:47:22;98768.34;;;7.83;100.00
804;BME280;25687;49.976;8.240;2023-03-26T18:49:50;98767.84;;;7.90;100.00
804;BME280;25687;49.976;8.240;2023-03-26T18:52:18;98766.09;;;7.91;100.00
804;BME280;25687;49.976;8.240;2023-03-26T18:54:50;98762.09;;;7.87;100.00